Time;durP1;ratioP1;P1;durP2;ratioP2;P2;SDS_P1;SDS_P2;PMS_P1;PMS_P2;Temp;Humidity;BMP_temperature;BMP_pressure;BME280_temperature;BME280_humidity;BME280_pressure;Samples;Min_cycle;Max_cycle;Signal;HPM_P1;HPM_P2
2021/04/26 00:00:51;;;;;;;2.33;0.90;;;5.50;65.20;;;;;;2072663;28;20039;-87
2021/04/26 00:01:52;;;;;;;2.05;0.80;;;5.50;65.20;;;;;;2066164;28;20053;-87
2021/04/26 00:02:54;;;;;;;1.92;0.73;;;5.50;65.20;;;;;;2063347;28;20153;-87
2021/04/26 00:03:54;;;;;;;2.88;1.00;;;5.50;65.20;;;;;;2074172;28;20030;-87
2021/04/26 00:04:55;;;;;;;3.40;1.08;;;5.50;65.20;;;;;;2070935;28;20070;-87
2021/04/26 00:05:56;;;;;;;3.50;0.90;;;5.50;65.20;;;;;;2079910;28;20124;-87
2021/04/26 00:06:57;;;;;;;3.20;0.80;;;5.50;65.20;;;;;;2075772;28;21635;-87
2021/04/26 00:07:58;;;;;;;2.83;1.10;;;5.50;65.30;;;;;;2075963;28;20036;-87
2021/04/26 00:08:58;;;;;;;2.92;0.80;;;5.50;65.20;;;;;;2072481;28;20045;-87
2021/04/26 00:09:59;;;;;;;3.40;0.98;;;5.40;65.20;;;;;;2072121;28;20136;-87
2021/04/26 00:11:00;;;;;;;5.65;1.02;;;5.40;65.20;;;;;;2070668;28;20034;-87
2021/04/26 00:12:01;;;;;;;3.53;0.70;;;5.40;65.20;;;;;;2078086;28;20125;-87
2021/04/26 00:13:01;;;;;;;3.78;1.10;;;5.40;65.20;;;;;;2072279;28;20046;-87
2021/04/26 00:14:06;;;;;;;3.15;0.93;;;5.40;65.20;;;;;;2079401;28;20085;-87
2021/04/26 00:15:11;;;;;;;3.33;1.30;;;5.40;65.30;;;;;;2079681;28;20030;-87
2021/04/26 00:16:11;;;;;;;2.50;0.70;;;5.40;65.20;;;;;;2076406;28;20416;-87
2021/04/26 00:17:12;;;;;;;2.45;0.90;;;5.40;65.20;;;;;;2078406;28;20056;-88
2021/04/26 00:18:13;;;;;;;3.45;1.02;;;5.40;65.30;;;;;;2078942;28;20038;-87
2021/04/26 00:19:14;;;;;;;3.25;1.02;;;5.40;65.20;;;;;;2077162;28;20040;-88
2021/04/26 00:20:16;;;;;;;4.88;0.90;;;5.40;65.20;;;;;;2084056;28;20108;-87
2021/04/26 00:21:17;;;;;;;3.58;0.90;;;5.40;65.30;;;;;;2078462;28;20176;-87
2021/04/26 00:22:18;;;;;;;2.30;0.90;;;5.30;65.30;;;;;;2065278;28;20034;-87
2021/04/26 00:23:18;;;;;;;4.20;1.00;;;5.30;65.30;;;;;;2077346;28;20032;-87
2021/04/26 00:24:19;;;;;;;3.30;0.90;;;5.30;65.30;;;;;;2079012;28;20029;-87
2021/04/26 00:25:20;;;;;;;3.22;0.90;;;5.30;65.30;;;;;;2077293;28;20068;-87
2021/04/26 00:26:20;;;;;;;3.38;0.90;;;5.30;65.30;;;;;;2069982;28;20034;-87
2021/04/26 00:27:21;;;;;;;3.20;0.88;;;5.30;65.30;;;;;;2078683;28;20530;-86
2021/04/26 00:28:22;;;;;;;2.97;0.88;;;5.30;65.30;;;;;;2064002;28;20436;-87
2021/04/26 00:29:22;;;;;;;4.63;1.20;;;5.30;65.40;;;;;;2047412;28;20035;-87
2021/04/26 00:30:24;;;;;;;2.92;0.90;;;5.30;65.30;;;;;;2071258;28;20037;-87
2021/04/26 00:31:25;;;;;;;3.67;0.98;;;5.30;65.40;;;;;;2079869;28;20029;-87
2021/04/26 00:32:26;;;;;;;5.07;1.60;;;5.20;65.30;;;;;;2076980;28;20022;-87
2021/04/26 00:33:26;;;;;;;2.97;1.20;;;5.20;65.40;;;;;;2083161;28;20083;-87
2021/04/26 00:34:27;;;;;;;3.72;1.13;;;5.20;65.40;;;;;;2071430;28;20058;-88
2021/04/26 00:35:28;;;;;;;3.88;0.90;;;5.20;65.40;;;;;;2055834;28;20059;-87
2021/04/26 00:36:28;;;;;;;3.08;1.02;;;5.20;65.40;;;;;;2072232;28;20445;-87
2021/04/26 00:37:29;;;;;;;4.78;1.02;;;5.20;65.50;;;;;;2072946;28;20416;-87
2021/04/26 00:38:30;;;;;;;2.20;0.77;;;5.20;65.40;;;;;;2061541;28;20042;-86
2021/04/26 00:39:30;;;;;;;4.82;1.00;;;5.20;65.40;;;;;;2077911;28;20025;-86
2021/04/26 00:40:31;;;;;;;2.97;1.10;;;5.20;65.50;;;;;;2080010;28;20112;-87
2021/04/26 00:41:32;;;;;;;5.10;0.93;;;5.20;65.40;;;;;;2078661;28;20028;-87
2021/04/26 00:42:33;;;;;;;4.65;0.90;;;5.20;65.40;;;;;;2071853;28;20026;-87
2021/04/26 00:43:34;;;;;;;2.25;0.80;;;5.20;65.50;;;;;;2071859;28;20076;-87
2021/04/26 00:44:34;;;;;;;4.47;1.13;;;5.10;65.50;;;;;;2064589;28;20566;-87
2021/04/26 00:45:35;;;;;;;8.00;1.33;;;5.20;65.50;;;;;;2054545;28;20066;-87
2021/04/26 00:46:36;;;;;;;2.90;0.82;;;5.20;65.50;;;;;;2062167;28;20396;-87
2021/04/26 00:47:38;;;;;;;3.28;0.95;;;5.10;65.50;;;;;;2063661;28;20516;-87
2021/04/26 00:48:39;;;;;;;5.63;1.00;;;5.10;65.60;;;;;;2062208;28;20172;-86
2021/04/26 00:49:40;;;;;;;3.80;0.80;;;5.10;65.60;;;;;;2062390;28;20058;-87
2021/04/26 00:50:42;;;;;;;4.88;1.00;;;5.10;65.60;;;;;;2059987;28;20097;-87
2021/04/26 00:51:43;;;;;;;3.17;0.88;;;5.10;65.70;;;;;;2055310;28;20030;-87
2021/04/26 00:52:45;;;;;;;2.58;0.90;;;5.10;65.80;;;;;;2080022;28;20534;-86
2021/04/26 00:53:46;;;;;;;3.35;1.08;;;5.00;65.70;;;;;;2078696;28;20022;-87
2021/04/26 00:54:47;;;;;;;3.28;0.90;;;5.00;65.70;;;;;;2081318;28;20137;-87
2021/04/26 00:55:48;;;;;;;3.40;0.98;;;5.00;65.70;;;;;;2077924;28;20033;-88
2021/04/26 00:56:48;;;;;;;3.60;0.90;;;5.00;65.70;;;;;;2068732;28;20061;-86
2021/04/26 00:57:49;;;;;;;4.22;0.90;;;5.00;65.70;;;;;;2055586;28;20046;-86
2021/04/26 00:58:50;;;;;;;3.08;1.02;;;5.00;65.70;;;;;;2072285;28;20026;-86
2021/04/26 00:59:50;;;;;;;2.60;0.82;;;5.00;65.70;;;;;;2081406;28;20022;-86
2021/04/26 01:00:51;;;;;;;2.92;0.70;;;5.00;65.70;;;;;;2067921;28;20021;-86
2021/04/26 01:01:52;;;;;;;3.20;0.93;;;5.00;65.80;;;;;;2079297;28;20364;-85
2021/04/26 01:02:53;;;;;;;2.40;0.93;;;5.00;65.70;;;;;;2083163;28;20084;-87
2021/04/26 01:03:54;;;;;;;2.50;0.90;;;5.00;65.90;;;;;;2078172;28;20056;-87
2021/04/26 01:04:55;;;;;;;3.83;0.93;;;4.90;65.70;;;;;;2079830;28;20388;-86
2021/04/26 01:05:56;;;;;;;2.72;0.93;;;4.90;65.80;;;;;;2072336;28;20030;-86
2021/04/26 01:06:57;;;;;;;2.85;1.00;;;5.00;65.90;;;;;;2072577;28;20034;-87
2021/04/26 01:07:58;;;;;;;4.85;1.00;;;4.90;65.90;;;;;;2084773;28;20040;-87
2021/04/26 01:08:58;;;;;;;3.97;1.05;;;4.90;65.90;;;;;;2085228;28;20491;-86
2021/04/26 01:09:59;;;;;;;5.38;1.00;;;4.90;66.00;;;;;;2080008;28;20079;-86
2021/04/26 01:11:00;;;;;;;4.35;1.30;;;4.90;66.00;;;;;;2073123;28;20210;-87
2021/04/26 01:12:37;;;;;;;3.95;1.17;;;4.90;66.00;;;;;;2080551;28;20021;-86
2021/04/26 01:14:14;;;;;;;4.10;1.05;;;4.90;66.10;;;;;;2095390;28;20024;-87
2021/04/26 01:15:15;;;;;;;3.85;1.00;;;4.90;66.00;;;;;;2093253;28;20074;-86
2021/04/26 01:16:24;;;;;;;3.90;1.00;;;4.80;65.90;;;;;;2094654;28;20090;-86
2021/04/26 01:17:28;;;;;;;3.50;1.10;;;4.80;66.00;;;;;;2088901;28;20052;-87
2021/04/26 01:18:53;;;;;;;2.28;1.20;;;4.80;66.20;;;;;;2086275;28;20108;-87
2021/04/26 01:20:38;;;;;;;3.40;1.00;;;4.80;66.30;;;;;;2095745;28;20131;-86
2021/04/26 01:22:22;;;;;;;4.18;1.00;;;4.80;66.20;;;;;;2085817;28;20044;-86
2021/04/26 01:23:38;;;;;;;3.08;0.80;;;4.70;66.80;;;;;;2090818;28;20033;-87
2021/04/26 01:25:11;;;;;;;2.72;0.80;;;4.70;66.10;;;;;;2093162;28;20025;-86
2021/04/26 01:26:38;;;;;;;4.22;1.10;;;4.70;66.20;;;;;;2070441;28;20527;-86
2021/04/26 01:27:42;;;;;;;5.55;1.10;;;4.70;66.10;;;;;;2089498;28;20521;-87
2021/04/26 01:28:50;;;;;;;4.78;1.15;;;4.70;66.20;;;;;;2095129;28;20123;-86
2021/04/26 01:30:28;;;;;;;3.00;0.95;;;4.70;66.30;;;;;;2092475;28;20021;-87
2021/04/26 01:31:52;;;;;;;2.60;0.90;;;4.70;66.30;;;;;;2078983;28;20034;-87
2021/04/26 01:33:11;;;;;;;3.53;0.90;;;4.60;66.30;;;;;;2079214;28;20021;-87
2021/04/26 01:34:12;;;;;;;4.63;0.90;;;4.60;66.30;;;;;;2076425;28;20497;-87
2021/04/26 01:35:16;;;;;;;4.07;0.93;;;4.60;66.30;;;;;;2086697;28;20111;-87
2021/04/26 01:36:20;;;;;;;3.88;0.95;;;4.60;66.40;;;;;;2088963;28;20028;-87
2021/04/26 01:37:22;;;;;;;2.42;1.10;;;4.60;66.40;;;;;;2087033;28;20053;-87
2021/04/26 01:38:37;;;;;;;5.03;0.90;;;4.60;66.40;;;;;;2079362;28;20037;-87
2021/04/26 01:39:41;;;;;;;3.33;0.73;;;4.60;66.50;;;;;;2074683;28;20030;-87
2021/04/26 01:40:44;;;;;;;2.78;0.90;;;4.60;66.60;;;;;;2072505;28;20625;-87
2021/04/26 01:41:46;;;;;;;3.17;0.90;;;4.50;66.50;;;;;;2086779;28;20050;-87
2021/04/26 01:42:50;;;;;;;3.63;1.30;;;4.50;66.60;;;;;;2065104;28;20274;-87
2021/04/26 01:43:52;;;;;;;4.05;1.10;;;4.60;66.70;;;;;;2063656;28;20041;-87
2021/04/26 01:44:55;;;;;;;3.40;1.08;;;4.60;66.70;;;;;;2071805;28;20129;-87
2021/04/26 01:46:00;;;;;;;2.33;0.80;;;4.50;66.70;;;;;;2080299;28;20372;-87
2021/04/26 01:47:01;;;;;;;2.25;0.90;;;4.50;66.60;;;;;;2078655;28;20399;-88
2021/04/26 01:48:02;;;;;;;5.68;1.27;;;4.60;66.70;;;;;;2088220;28;20079;-87
2021/04/26 01:49:03;;;;;;;3.40;0.90;;;4.60;66.70;;;;;;2072916;28;20029;-87
2021/04/26 01:50:07;;;;;;;2.60;1.10;;;4.50;66.70;;;;;;2073105;28;20041;-87
2021/04/26 01:51:10;;;;;;;4.32;1.10;;;4.60;66.70;;;;;;2073234;28;20125;-87
2021/04/26 01:52:12;;;;;;;3.63;1.08;;;4.60;66.70;;;;;;2077850;28;20033;-86
2021/04/26 01:53:15;;;;;;;3.33;0.95;;;4.60;66.70;;;;;;2086391;28;20131;-87
2021/04/26 01:54:17;;;;;;;5.60;1.48;;;4.60;66.70;;;;;;2085170;28;20108;-87
2021/04/26 01:55:20;;;;;;;5.30;1.02;;;4.60;66.80;;;;;;2079152;28;20038;-87
2021/04/26 01:56:22;;;;;;;3.20;1.10;;;4.60;66.70;;;;;;2087747;28;20021;-87
2021/04/26 01:57:24;;;;;;;5.22;1.30;;;4.60;66.70;;;;;;2077301;28;20125;-87
2021/04/26 01:58:26;;;;;;;3.67;1.05;;;4.60;66.60;;;;;;2071195;28;20062;-87
2021/04/26 01:59:27;;;;;;;3.70;1.05;;;4.60;66.70;;;;;;2072289;28;20019;-87
2021/04/26 02:00:30;;;;;;;4.78;1.27;;;4.60;66.80;;;;;;2072519;28;20026;-87
2021/04/26 02:01:32;;;;;;;4.07;1.30;;;4.60;66.90;;;;;;2072745;28;20053;-87
2021/04/26 02:02:34;;;;;;;3.65;1.50;;;4.60;66.80;;;;;;2074643;28;20022;-87
2021/04/26 02:03:36;;;;;;;4.13;1.40;;;4.60;66.90;;;;;;2073172;28;20030;-86
2021/04/26 02:04:39;;;;;;;4.63;1.42;;;4.60;66.80;;;;;;2076213;28;20091;-86
2021/04/26 02:05:40;;;;;;;5.47;1.30;;;4.60;66.90;;;;;;2074254;28;20033;-87
2021/04/26 02:06:41;;;;;;;4.20;1.23;;;4.60;67.00;;;;;;2063562;28;20030;-86
2021/04/26 02:07:48;;;;;;;4.05;1.50;;;4.60;66.90;;;;;;2062983;28;20053;-86
2021/04/26 02:08:50;;;;;;;3.63;1.20;;;4.60;67.00;;;;;;2086012;28;20083;-86
2021/04/26 02:09:52;;;;;;;2.75;1.10;;;4.50;67.00;;;;;;2078640;28;20116;-86
2021/04/26 02:10:53;;;;;;;4.32;1.20;;;4.50;67.00;;;;;;2072674;28;20033;-85
2021/04/26 02:11:57;;;;;;;2.97;1.10;;;4.60;67.00;;;;;;2074160;28;20030;-86
2021/04/26 02:12:58;;;;;;;4.45;1.00;;;4.60;67.00;;;;;;2077206;28;20094;-87
2021/04/26 02:13:59;;;;;;;3.92;1.02;;;4.60;67.00;;;;;;2093730;28;20017;-86
2021/04/26 02:15:02;;;;;;;3.97;1.10;;;4.50;66.90;;;;;;2084582;28;20023;-86
2021/04/26 02:16:03;;;;;;;2.63;1.10;;;4.50;67.00;;;;;;2087554;28;20025;-87
2021/04/26 02:17:04;;;;;;;3.60;1.10;;;4.50;67.00;;;;;;2072885;28;20042;-86
2021/04/26 02:18:06;;;;;;;2.72;0.82;;;4.50;67.00;;;;;;2064704;28;20035;-87
2021/04/26 02:19:07;;;;;;;2.55;1.00;;;4.50;67.10;;;;;;2087983;28;20430;-86
2021/04/26 02:20:09;;;;;;;2.92;0.93;;;4.50;67.10;;;;;;2071757;28;20037;-87
2021/04/26 02:21:10;;;;;;;6.78;1.33;;;4.50;67.10;;;;;;2072422;28;20033;-87
2021/04/26 02:22:11;;;;;;;3.50;1.05;;;4.50;67.10;;;;;;2069095;28;20396;-88
2021/04/26 02:23:12;;;;;;;4.57;0.90;;;4.50;67.10;;;;;;2077798;28;20025;-87
2021/04/26 02:24:13;;;;;;;4.60;1.02;;;4.50;67.20;;;;;;2087575;28;20065;-87
2021/04/26 02:25:14;;;;;;;3.80;1.00;;;4.50;67.20;;;;;;2087851;28;20430;-87
2021/04/26 02:26:15;;;;;;;5.18;1.10;;;4.50;67.20;;;;;;2080410;28;20057;-88
2021/04/26 02:27:15;;;;;;;2.55;1.10;;;4.50;67.10;;;;;;2063464;28;20030;-87
2021/04/26 02:28:16;;;;;;;3.38;0.90;;;4.50;67.10;;;;;;2071562;28;20030;-87
2021/04/26 02:29:17;;;;;;;4.03;0.90;;;4.50;67.20;;;;;;2058473;28;20458;-87
2021/04/26 02:30:18;;;;;;;3.50;1.00;;;4.50;67.10;;;;;;2077938;28;20065;-87
2021/04/26 02:31:21;;;;;;;3.80;0.70;;;4.50;67.10;;;;;;2087296;28;20014;-88
2021/04/26 02:32:28;;;;;;;4.05;1.10;;;4.50;67.10;;;;;;2084918;28;20094;-87
2021/04/26 02:33:41;;;;;;;2.90;1.00;;;4.50;67.20;;;;;;2087489;28;20093;-88
2021/04/26 02:34:46;;;;;;;1.52;0.90;;;4.50;67.20;;;;;;2083873;28;20072;-87
2021/04/26 02:36:01;;;;;;;3.85;0.90;;;4.50;67.20;;;;;;2082869;28;20028;-88
2021/04/26 02:37:30;;;;;;;2.85;0.88;;;4.40;67.20;;;;;;2091387;28;20052;-87
2021/04/26 02:38:42;;;;;;;2.80;0.93;;;4.50;67.20;;;;;;2056905;28;20040;-86
2021/04/26 02:39:46;;;;;;;3.80;1.10;;;4.40;67.20;;;;;;2091529;28;20092;-87
2021/04/26 02:40:51;;;;;;;3.50;1.35;;;4.50;67.20;;;;;;2092888;28;20024;-87
2021/04/26 02:41:52;;;;;;;2.55;0.90;;;4.50;67.20;;;;;;2084928;28;20025;-86
2021/04/26 02:42:55;;;;;;;2.95;1.00;;;4.40;67.20;;;;;;2086092;28;20056;-85
2021/04/26 02:44:00;;;;;;;3.58;0.95;;;4.50;67.20;;;;;;2085049;28;20025;-86
2021/04/26 02:45:02;;;;;;;3.53;1.00;;;4.40;67.10;;;;;;2079314;28;20033;-87
2021/04/26 02:46:04;;;;;;;1.75;0.80;;;4.50;67.20;;;;;;2087557;28;20427;-86
2021/04/26 02:47:10;;;;;;;2.55;0.90;;;4.40;67.10;;;;;;2076958;28;20061;-86
2021/04/26 02:48:12;;;;;;;2.05;0.82;;;4.40;67.10;;;;;;2076753;28;20018;-86
2021/04/26 02:49:14;;;;;;;2.55;0.75;;;4.40;67.20;;;;;;2082241;28;20090;-86
2021/04/26 02:50:24;;;;;;;3.42;0.80;;;4.40;67.20;;;;;;2085418;28;20580;-86
2021/04/26 02:51:31;;;;;;;2.20;0.63;;;4.50;67.10;;;;;;2070060;28;20019;-86
2021/04/26 02:52:32;;;;;;;1.77;0.70;;;4.50;67.10;;;;;;2082077;28;20052;-85
2021/04/26 02:53:34;;;;;;;2.38;0.80;;;4.40;67.00;;;;;;2090617;28;20025;-86
2021/04/26 02:54:35;;;;;;;2.95;0.80;;;4.50;67.00;;;;;;2081778;28;20033;-86
2021/04/26 02:55:37;;;;;;;3.78;0.85;;;4.40;67.00;;;;;;2073545;28;20064;-86
2021/04/26 02:56:40;;;;;;;3.83;0.88;;;4.50;67.00;;;;;;2073644;28;20034;-86
2021/04/26 02:57:42;;;;;;;2.63;0.60;;;4.50;67.10;;;;;;2071303;28;20018;-87
2021/04/26 02:58:46;;;;;;;2.88;0.82;;;4.50;67.10;;;;;;2077424;28;20082;-86
2021/04/26 02:59:49;;;;;;;2.10;0.70;;;4.50;67.10;;;;;;2084854;28;20018;-86
2021/04/26 03:00:51;;;;;;;2.70;1.13;;;4.50;67.10;;;;;;2078742;28;20058;-87
2021/04/26 03:01:53;;;;;;;2.92;0.80;;;4.50;67.10;;;;;;2080487;28;20096;-87
2021/04/26 03:02:55;;;;;;;2.83;1.08;;;4.40;67.10;;;;;;2087767;28;20060;-87
2021/04/26 03:03:57;;;;;;;3.47;0.88;;;4.50;67.20;;;;;;2077899;28;20562;-87
2021/04/26 03:04:58;;;;;;;3.13;1.05;;;4.40;67.10;;;;;;2078275;28;20038;-88
2021/04/26 03:06:01;;;;;;;2.53;0.90;;;4.40;67.10;;;;;;2070878;28;20045;-87
2021/04/26 03:07:02;;;;;;;1.88;0.75;;;4.40;67.20;;;;;;2071852;28;20042;-87
2021/04/26 03:08:04;;;;;;;2.83;1.23;;;4.40;67.20;;;;;;2077583;28;20048;-87
2021/04/26 03:09:05;;;;;;;3.22;0.80;;;4.40;67.20;;;;;;2083762;28;20029;-87
2021/04/26 03:10:09;;;;;;;3.00;0.82;;;4.40;67.20;;;;;;2087316;28;20052;-87
2021/04/26 03:11:12;;;;;;;1.55;0.70;;;4.40;67.30;;;;;;2078210;28;20055;-85
2021/04/26 03:12:13;;;;;;;3.22;1.02;;;4.40;67.20;;;;;;2089197;28;20032;-87
2021/04/26 03:13:16;;;;;;;3.67;0.80;;;4.40;67.90;;;;;;2083567;28;20068;-88
2021/04/26 03:14:19;;;;;;;5.53;1.00;;;4.40;67.30;;;;;;2075493;28;20057;-88
2021/04/26 03:15:24;;;;;;;2.28;0.90;;;4.40;67.30;;;;;;2073689;28;20099;-88
2021/04/26 03:16:27;;;;;;;2.90;0.90;;;4.40;67.30;;;;;;2072091;28;20022;-88
2021/04/26 03:17:28;;;;;;;2.35;0.77;;;4.40;67.90;;;;;;2083750;28;20108;-87
2021/04/26 03:18:29;;;;;;;3.80;0.88;;;4.40;67.30;;;;;;2078653;28;20028;-88
2021/04/26 03:19:30;;;;;;;2.33;0.77;;;4.40;67.30;;;;;;2064108;28;20065;-88
2021/04/26 03:20:32;;;;;;;2.25;0.90;;;4.40;67.30;;;;;;2068036;28;20041;-88
2021/04/26 03:21:34;;;;;;;3.13;1.05;;;4.40;67.40;;;;;;2071406;28;20223;-88
2021/04/26 03:22:35;;;;;;;3.20;1.00;;;4.40;68.00;;;;;;2084623;28;20025;-88
2021/04/26 03:23:36;;;;;;;4.00;1.25;;;4.40;67.40;;;;;;2074821;28;20033;-87
2021/04/26 03:24:37;;;;;;;4.25;0.98;;;4.30;67.40;;;;;;2058098;28;20039;-88
2021/04/26 03:25:38;;;;;;;4.47;0.80;;;4.40;67.50;;;;;;2058470;28;20513;-88
2021/04/26 03:26:38;;;;;;;3.13;1.05;;;4.40;67.60;;;;;;2059349;28;20493;-88
2021/04/26 03:27:44;;;;;;;3.40;0.90;;;4.30;67.50;;;;;;2057236;28;20575;-88
2021/04/26 03:28:46;;;;;;;3.15;0.90;;;4.30;67.60;;;;;;2075177;28;20375;-88
2021/04/26 03:29:49;;;;;;;3.75;1.00;;;4.30;67.60;;;;;;2063165;28;20504;-87
2021/04/26 03:30:50;;;;;;;4.45;1.00;;;4.30;67.60;;;;;;2064927;28;20033;-88
2021/04/26 03:31:52;;;;;;;3.60;0.98;;;4.30;67.70;;;;;;2071923;28;20021;-88
2021/04/26 03:32:54;;;;;;;3.50;1.00;;;4.30;67.70;;;;;;2071143;28;20057;-87
2021/04/26 03:33:57;;;;;;;2.30;0.88;;;4.30;67.90;;;;;;2059792;28;20035;-87
2021/04/26 03:34:59;;;;;;;3.08;0.90;;;4.30;67.80;;;;;;2064852;28;20483;-87
2021/04/26 03:36:00;;;;;;;3.92;1.00;;;4.30;67.90;;;;;;2080609;28;20025;-88
2021/04/26 03:37:01;;;;;;;2.78;1.10;;;4.20;67.90;;;;;;2080188;28;20407;-88
2021/04/26 03:38:03;;;;;;;3.28;1.20;;;4.20;68.10;;;;;;2079918;28;20033;-88
2021/04/26 03:39:08;;;;;;;3.40;1.00;;;4.20;68.20;;;;;;2064004;28;20049;-88
2021/04/26 03:40:09;;;;;;;3.50;1.00;;;4.20;68.10;;;;;;2072607;28;20025;-87
2021/04/26 03:41:12;;;;;;;4.97;1.00;;;4.20;68.20;;;;;;2072661;28;20037;-88
2021/04/26 03:42:19;;;;;;;3.45;1.10;;;4.20;68.20;;;;;;2068388;28;20026;-87
2021/04/26 03:43:19;;;;;;;2.83;1.10;;;4.10;68.20;;;;;;2054969;28;20037;-86
2021/04/26 03:44:20;;;;;;;2.08;1.00;;;4.20;68.30;;;;;;2052785;28;20482;-88
2021/04/26 03:45:22;;;;;;;4.60;1.05;;;4.10;68.40;;;;;;2063121;28;20125;-87
2021/04/26 03:46:23;;;;;;;4.35;1.27;;;4.10;68.50;;;;;;2078246;28;20120;-86
2021/04/26 03:47:23;;;;;;;3.03;1.00;;;4.10;68.50;;;;;;2071597;28;20030;-87
2021/04/26 03:48:24;;;;;;;3.08;1.23;;;4.10;68.60;;;;;;2080210;28;20112;-87
2021/04/26 03:49:25;;;;;;;4.57;1.10;;;4.10;68.60;;;;;;2084787;28;20368;-87
2021/04/26 03:50:26;;;;;;;2.88;0.90;;;4.10;68.70;;;;;;2079142;28;20029;-87
2021/04/26 03:51:27;;;;;;;3.60;1.60;;;4.00;68.70;;;;;;2076300;28;20069;-87
2021/04/26 03:52:28;;;;;;;5.63;1.17;;;4.10;68.90;;;;;;2074350;28;20022;-87
2021/04/26 03:53:28;;;;;;;3.63;0.95;;;4.10;68.90;;;;;;2079863;28;20079;-87
2021/04/26 03:54:29;;;;;;;4.97;1.25;;;4.00;68.90;;;;;;2063694;28;20050;-87
2021/04/26 03:55:30;;;;;;;3.53;0.90;;;4.00;69.00;;;;;;2064055;28;20038;-87
2021/04/26 03:56:31;;;;;;;3.97;0.93;;;4.00;69.60;;;;;;2071939;28;20026;-87
2021/04/26 03:57:32;;;;;;;2.47;1.00;;;4.00;69.00;;;;;;2063042;28;20077;-87
2021/04/26 03:58:32;;;;;;;3.38;1.02;;;4.00;69.00;;;;;;2058901;28;20504;-87
2021/04/26 03:59:33;;;;;;;2.55;0.90;;;4.00;69.10;;;;;;2058870;28;20034;-87
2021/04/26 04:00:34;;;;;;;5.05;0.98;;;4.00;69.10;;;;;;2077682;28;20072;-87
2021/04/26 04:01:35;;;;;;;3.88;0.90;;;4.00;69.10;;;;;;2088490;28;20112;-87
2021/04/26 04:02:36;;;;;;;3.08;0.90;;;4.00;69.10;;;;;;2084671;28;20112;-87
2021/04/26 04:03:39;;;;;;;2.92;0.90;;;4.00;69.10;;;;;;2079306;28;20029;-87
2021/04/26 04:04:40;;;;;;;4.25;1.00;;;4.00;69.10;;;;;;2089411;28;20033;-88
2021/04/26 04:05:42;;;;;;;3.05;0.90;;;4.00;69.10;;;;;;2079532;28;20104;-87
2021/04/26 04:06:43;;;;;;;2.63;0.93;;;4.00;69.20;;;;;;2071241;28;20473;-86
2021/04/26 04:07:44;;;;;;;4.40;1.00;;;4.00;69.30;;;;;;2076340;28;20064;-87
2021/04/26 04:08:44;;;;;;;3.33;0.90;;;4.00;69.20;;;;;;2074917;28;20117;-86
2021/04/26 04:09:45;;;;;;;4.78;1.20;;;4.00;69.20;;;;;;2079039;28;20040;-86
2021/04/26 04:10:46;;;;;;;4.63;1.20;;;4.00;69.20;;;;;;2088681;28;20029;-87
2021/04/26 04:11:46;;;;;;;3.58;1.23;;;4.00;69.30;;;;;;2079143;28;20037;-87
2021/04/26 04:12:47;;;;;;;3.63;1.00;;;4.00;69.30;;;;;;2071966;28;20034;-86
2021/04/26 04:13:47;;;;;;;4.90;1.65;;;4.00;69.30;;;;;;2057750;28;20034;-86
2021/04/26 04:14:48;;;;;;;3.22;1.27;;;4.00;69.40;;;;;;2053708;28;20038;-86
2021/04/26 04:15:49;;;;;;;2.70;1.15;;;4.00;69.40;;;;;;2054741;28;20038;-86
2021/04/26 04:16:50;;;;;;;3.22;1.10;;;4.00;69.40;;;;;;2060190;28;20027;-85
2021/04/26 04:17:51;;;;;;;2.33;0.88;;;4.00;69.50;;;;;;2079424;28;20030;-87
2021/04/26 04:18:52;;;;;;;2.50;0.80;;;4.00;69.40;;;;;;2079808;28;20095;-86
2021/04/26 04:19:53;;;;;;;3.65;1.00;;;4.00;70.10;;;;;;2072264;28;20065;-86
2021/04/26 04:20:54;;;;;;;3.65;1.02;;;4.00;69.50;;;;;;2062317;28;20030;-87
2021/04/26 04:21:55;;;;;;;2.50;0.80;;;4.00;69.50;;;;;;2071146;28;20446;-87
2021/04/26 04:22:55;;;;;;;4.93;1.10;;;4.00;69.50;;;;;;2065002;28;20026;-87
2021/04/26 04:23:56;;;;;;;3.58;1.00;;;4.00;69.70;;;;;;2063955;28;20050;-85
2021/04/26 04:24:56;;;;;;;2.60;1.10;;;4.00;69.60;;;;;;2071265;28;20117;-86
2021/04/26 04:25:57;;;;;;;2.20;0.90;;;4.00;69.60;;;;;;2066282;28;20022;-86
2021/04/26 04:26:58;;;;;;;4.03;1.05;;;4.00;69.60;;;;;;2066779;28;20073;-87
2021/04/26 04:27:58;;;;;;;2.08;0.90;;;4.00;69.60;;;;;;2071430;28;20077;-87
2021/04/26 04:28:59;;;;;;;2.70;0.90;;;4.00;69.60;;;;;;2057939;28;20034;-87
2021/04/26 04:30:00;;;;;;;4.72;1.15;;;4.00;69.70;;;;;;2062901;28;20034;-87
2021/04/26 04:31:02;;;;;;;4.47;1.10;;;4.00;69.70;;;;;;2065765;28;20018;-87
2021/04/26 04:32:03;;;;;;;4.25;1.02;;;4.00;69.70;;;;;;2060922;28;20034;-87
2021/04/26 04:33:04;;;;;;;4.57;0.90;;;4.00;69.70;;;;;;2072915;28;20044;-86
2021/04/26 04:34:04;;;;;;;7.15;1.30;;;4.00;69.80;;;;;;2070721;28;20042;-87
2021/04/26 04:35:06;;;;;;;3.13;1.02;;;4.00;69.70;;;;;;2065491;28;20038;-87
2021/04/26 04:36:07;;;;;;;2.90;1.00;;;4.00;69.70;;;;;;2073015;28;20034;-87
2021/04/26 04:37:07;;;;;;;3.92;1.08;;;4.00;69.70;;;;;;2078871;28;20030;-87
2021/04/26 04:38:08;;;;;;;3.35;0.95;;;4.00;69.70;;;;;;2073829;28;20049;-88
2021/04/26 04:39:09;;;;;;;2.38;0.90;;;4.00;69.60;;;;;;2072961;28;20029;-87
2021/04/26 04:40:10;;;;;;;3.42;1.00;;;4.00;69.70;;;;;;2070830;28;20038;-87
2021/04/26 04:41:11;;;;;;;5.18;1.27;;;4.00;69.70;;;;;;2070727;28;20041;-87
2021/04/26 04:42:11;;;;;;;3.85;0.90;;;4.00;69.80;;;;;;2071035;28;20037;-88
2021/04/26 04:43:12;;;;;;;3.72;1.10;;;4.00;69.70;;;;;;2081378;28;20033;-87
2021/04/26 04:44:12;;;;;;;2.22;0.90;;;4.10;69.70;;;;;;2073000;28;20523;-87
2021/04/26 04:45:13;;;;;;;2.95;1.08;;;4.10;69.60;;;;;;2072222;28;20033;-87
2021/04/26 04:46:14;;;;;;;2.22;0.80;;;4.10;69.50;;;;;;2079319;28;20038;-88
2021/04/26 04:47:15;;;;;;;3.05;1.10;;;4.10;69.50;;;;;;2073615;28;20080;-88
2021/04/26 04:48:16;;;;;;;3.20;1.00;;;4.10;69.50;;;;;;2074213;28;20091;-87
2021/04/26 04:49:16;;;;;;;2.70;1.00;;;4.10;69.50;;;;;;2068652;28;20034;-89
2021/04/26 04:50:17;;;;;;;2.90;0.90;;;4.20;69.50;;;;;;2067674;28;20029;-88
2021/04/26 04:51:18;;;;;;;4.00;1.00;;;4.20;70.10;;;;;;2070335;28;20041;-88
2021/04/26 04:52:18;;;;;;;2.72;0.80;;;4.20;69.50;;;;;;2082579;28;20032;-88
2021/04/26 04:53:19;;;;;;;2.40;0.90;;;4.20;69.40;;;;;;2074343;28;20026;-88
2021/04/26 04:54:19;;;;;;;2.75;0.85;;;4.20;69.40;;;;;;2069808;28;20034;-88
2021/04/26 04:55:20;;;;;;;3.45;0.82;;;4.20;69.30;;;;;;2091947;28;20025;-87
2021/04/26 04:56:21;;;;;;;1.85;0.80;;;4.30;69.30;;;;;;2087484;28;20036;-88
2021/04/26 04:57:22;;;;;;;3.75;1.00;;;4.30;69.30;;;;;;2084396;28;20029;-88
2021/04/26 04:58:22;;;;;;;1.48;0.70;;;4.30;69.30;;;;;;2086948;28;20574;-88
2021/04/26 04:59:23;;;;;;;2.42;0.85;;;4.30;69.20;;;;;;2082824;28;20493;-88
2021/04/26 05:00:24;;;;;;;3.13;1.00;;;4.30;69.20;;;;;;2059944;28;20035;-88
2021/04/26 05:01:24;;;;;;;1.70;0.70;;;4.30;69.20;;;;;;2076584;28;20026;-88
2021/04/26 05:02:25;;;;;;;2.72;0.90;;;4.30;69.20;;;;;;2074263;28;20400;-88
2021/04/26 05:03:25;;;;;;;3.35;1.00;;;4.30;69.10;;;;;;2066541;28;20069;-88
2021/04/26 05:04:26;;;;;;;3.20;1.08;;;4.30;69.10;;;;;;2056595;28;20034;-88
2021/04/26 05:05:27;;;;;;;4.90;1.15;;;4.30;69.20;;;;;;2065599;28;20463;-88
2021/04/26 05:06:28;;;;;;;3.15;0.90;;;4.30;69.20;;;;;;2065624;28;20150;-88
2021/04/26 05:07:28;;;;;;;2.22;0.88;;;4.40;69.20;;;;;;2065805;28;20030;-88
2021/04/26 05:08:29;;;;;;;2.72;0.90;;;4.40;69.20;;;;;;2070692;28;20499;-88
2021/04/26 05:09:29;;;;;;;3.05;0.93;;;4.40;69.10;;;;;;2073402;28;20037;-88
2021/04/26 05:10:30;;;;;;;1.65;0.70;;;4.40;69.10;;;;;;2085208;28;20052;-87
2021/04/26 05:11:31;;;;;;;2.33;0.90;;;4.50;69.10;;;;;;2091809;28;20033;-87
2021/04/26 05:12:32;;;;;;;1.70;0.75;;;4.50;69.00;;;;;;2080432;28;20060;-87
2021/04/26 05:13:32;;;;;;;2.42;0.82;;;4.50;68.90;;;;;;2080189;28;20025;-86
2021/04/26 05:14:34;;;;;;;3.22;0.90;;;4.50;68.90;;;;;;2072112;28;20026;-88
2021/04/26 05:15:35;;;;;;;1.50;0.80;;;4.60;68.80;;;;;;2067304;28;20033;-87
2021/04/26 05:16:35;;;;;;;2.50;0.80;;;4.60;68.70;;;;;;2056589;28;20408;-87
2021/04/26 05:17:37;;;;;;;2.55;0.80;;;4.70;68.70;;;;;;2056586;28;20062;-88
2021/04/26 05:18:37;;;;;;;1.88;0.80;;;4.70;68.60;;;;;;2063337;28;20026;-88
2021/04/26 05:19:38;;;;;;;2.78;0.90;;;4.80;68.50;;;;;;2073049;28;20057;-88
2021/04/26 05:20:41;;;;;;;2.67;0.82;;;4.80;68.50;;;;;;2091800;28;20020;-87
2021/04/26 05:21:42;;;;;;;3.60;0.90;;;4.80;68.40;;;;;;2095381;28;20028;-88
2021/04/26 05:22:43;;;;;;;2.60;0.80;;;4.90;68.40;;;;;;2076282;28;20513;-87
2021/04/26 05:23:43;;;;;;;2.20;1.10;;;4.90;68.30;;;;;;2071406;28;20040;-87
2021/04/26 05:24:44;;;;;;;3.20;0.90;;;5.00;68.20;;;;;;2084319;28;20098;-86
2021/04/26 05:25:48;;;;;;;3.53;0.95;;;5.00;68.70;;;;;;2085547;28;20114;-87
2021/04/26 05:26:49;;;;;;;4.35;1.10;;;5.00;68.00;;;;;;2080567;28;20518;-85
2021/04/26 05:27:50;;;;;;;3.17;0.90;;;5.10;67.90;;;;;;2076859;28;20033;-86
2021/04/26 05:28:50;;;;;;;3.10;1.00;;;5.10;67.90;;;;;;2077494;28;20369;-87
2021/04/26 05:29:51;;;;;;;4.50;1.25;;;5.10;67.80;;;;;;2071803;28;20496;-88
2021/04/26 05:30:52;;;;;;;2.90;1.05;;;5.20;67.70;;;;;;2064587;28;20409;-89
2021/04/26 05:31:52;;;;;;;5.03;1.00;;;5.20;67.70;;;;;;2072784;28;20046;-88